createdAt,value
2023-03-31T00:00:08.976Z,985.35
2023-03-31T00:01:09.050Z,985.32
2023-03-31T00:02:08.971Z,985.31
2023-03-31T00:03:09.009Z,985.21
2023-03-31T00:04:09.120Z,985.14
2023-03-31T00:05:09.113Z,985.19
2023-03-31T00:06:08.924Z,985.14
2023-03-31T00:07:08.956Z,985.15
2023-03-31T00:08:10.614Z,985.12
2023-03-31T00:09:10.947Z,985.14
2023-03-31T00:10:17.795Z,985.12
2023-03-31T00:11:10.899Z,985.11
2023-03-31T00:12:08.999Z,985.10
2023-03-31T00:13:08.872Z,985.09
2023-03-31T00:14:08.799Z,984.98
2023-03-31T00:15:08.856Z,984.91
2023-03-31T00:16:09.277Z,984.91
2023-03-31T00:17:08.789Z,984.87
2023-03-31T00:18:08.884Z,984.88
2023-03-31T00:19:08.798Z,984.86
2023-03-31T00:20:08.843Z,984.83
2023-03-31T00:21:08.805Z,984.85
2023-03-31T00:22:08.775Z,984.88
2023-03-31T00:23:08.917Z,984.83
2023-03-31T00:24:09.091Z,984.77
2023-03-31T00:25:08.957Z,984.74
2023-03-31T00:26:08.879Z,984.72
2023-03-31T00:27:08.790Z,984.72
2023-03-31T00:28:08.744Z,984.69
2023-03-31T00:29:08.729Z,984.63
2023-03-31T00:30:08.677Z,984.65
2023-03-31T00:31:08.804Z,984.61
2023-03-31T00:32:08.755Z,984.62
2023-03-31T00:33:09.545Z,984.61
2023-03-31T00:34:08.588Z,984.61
2023-03-31T00:35:08.808Z,984.60
2023-03-31T00:36:08.986Z,984.59
2023-03-31T00:37:08.749Z,984.64
2023-03-31T00:38:10.270Z,984.68
2023-03-31T00:39:08.778Z,984.62
2023-03-31T00:40:08.621Z,984.62
2023-03-31T00:41:08.676Z,984.61
2023-03-31T00:42:08.624Z,984.51
2023-03-31T00:43:09.882Z,984.49
2023-03-31T00:44:08.616Z,984.51
2023-03-31T00:45:08.828Z,984.43
2023-03-31T00:46:08.753Z,984.43
2023-03-31T00:47:08.519Z,984.40
2023-03-31T00:48:08.640Z,984.41
2023-03-31T00:49:08.556Z,984.43
2023-03-31T00:50:08.831Z,984.44
2023-03-31T00:51:08.568Z,984.38
2023-03-31T00:52:08.704Z,984.39
2023-03-31T00:53:08.617Z,984.33
2023-03-31T00:54:08.623Z,984.38
2023-03-31T00:55:08.692Z,984.32
2023-03-31T00:56:08.696Z,984.35
2023-03-31T00:57:08.503Z,984.27
2023-03-31T00:58:08.565Z,984.34
2023-03-31T00:59:08.531Z,984.33
2023-03-31T01:00:08.360Z,984.44
2023-03-31T01:01:08.429Z,984.40
2023-03-31T01:02:08.341Z,984.43
2023-03-31T01:03:08.484Z,984.37
2023-03-31T01:04:08.645Z,984.33
2023-03-31T01:05:08.354Z,984.29
2023-03-31T01:06:09.374Z,984.35
2023-03-31T01:07:08.785Z,984.33
2023-03-31T01:08:08.295Z,984.27
2023-03-31T01:09:08.545Z,984.25
2023-03-31T01:10:08.444Z,984.26
2023-03-31T01:11:08.304Z,984.24
2023-03-31T01:12:08.487Z,984.25
2023-03-31T01:13:08.846Z,984.19
2023-03-31T01:14:08.323Z,984.22
2023-03-31T01:15:08.300Z,984.19
2023-03-31T01:16:08.424Z,984.16
2023-03-31T01:17:09.145Z,984.18
2023-03-31T01:18:08.214Z,984.12
2023-03-31T01:19:08.243Z,984.09
2023-03-31T01:20:08.357Z,984.15
2023-03-31T01:21:09.135Z,984.10
2023-03-31T01:22:08.228Z,984.05
2023-03-31T01:23:08.261Z,983.99
2023-03-31T01:24:08.111Z,984.08
2023-03-31T01:25:08.204Z,984.03
2023-03-31T01:26:08.247Z,984.07
2023-03-31T01:27:09.049Z,984.01
2023-03-31T01:28:08.153Z,983.99
2023-03-31T01:29:08.278Z,984.00
2023-03-31T01:30:08.083Z,983.98
2023-03-31T01:31:08.145Z,983.95
2023-03-31T01:32:09.168Z,984.02
2023-03-31T01:33:08.127Z,983.97
2023-03-31T01:34:08.217Z,983.97
2023-03-31T01:35:08.287Z,983.91
2023-03-31T01:36:09.495Z,983.84
2023-03-31T01:37:09.661Z,983.85
2023-03-31T01:38:08.235Z,983.87
2023-03-31T01:39:08.060Z,983.84
2023-03-31T01:40:08.162Z,983.84
2023-03-31T01:41:08.641Z,983.81
2023-03-31T01:42:08.283Z,983.75
2023-03-31T01:43:07.967Z,983.74
2023-03-31T01:44:07.946Z,983.74
2023-03-31T01:45:08.066Z,983.73
2023-03-31T01:46:08.161Z,983.73
2023-03-31T01:47:07.853Z,983.76
2023-03-31T01:48:11.092Z,983.71
2023-03-31T01:49:08.204Z,983.68
2023-03-31T01:50:07.925Z,983.74
2023-03-31T01:51:07.972Z,983.69
2023-03-31T01:52:08.200Z,983.73
2023-03-31T01:53:07.973Z,983.69
2023-03-31T01:54:08.191Z,983.64
2023-03-31T01:55:08.743Z,983.66
2023-03-31T01:56:08.236Z,983.64
2023-03-31T01:57:08.743Z,983.57
2023-03-31T01:58:08.204Z,983.50
2023-03-31T01:59:07.961Z,983.55
2023-03-31T02:00:08.029Z,983.60
2023-03-31T02:01:07.765Z,983.53
2023-03-31T02:02:08.020Z,983.46
2023-03-31T02:03:07.995Z,983.51
2023-03-31T02:04:07.935Z,983.45
2023-03-31T02:05:07.953Z,983.45
2023-03-31T02:06:08.044Z,983.39
2023-03-31T02:07:07.758Z,983.39
2023-03-31T02:08:08.000Z,983.40
2023-03-31T02:09:07.730Z,983.40
2023-03-31T02:10:07.749Z,983.34
2023-03-31T02:11:08.569Z,983.33
2023-03-31T02:12:07.752Z,983.37
2023-03-31T02:13:07.916Z,983.31
2023-03-31T02:14:07.689Z,983.31
2023-03-31T02:15:09.222Z,983.29
2023-03-31T02:16:08.263Z,983.34
2023-03-31T02:17:07.844Z,983.25
2023-03-31T02:18:08.069Z,983.22
2023-03-31T02:19:07.911Z,983.22
2023-03-31T02:20:07.967Z,983.19
2023-03-31T02:21:07.791Z,983.17
2023-03-31T02:22:07.751Z,983.18
2023-03-31T02:23:07.596Z,983.11
2023-03-31T02:24:07.580Z,983.12
2023-03-31T02:25:08.448Z,983.15
2023-03-31T02:26:07.962Z,983.13
2023-03-31T02:27:07.502Z,983.18
2023-03-31T02:28:07.518Z,983.13
2023-03-31T02:29:07.721Z,983.12
2023-03-31T02:30:07.463Z,983.16
2023-03-31T02:31:07.478Z,983.13
2023-03-31T02:32:07.520Z,983.13
2023-03-31T02:33:07.659Z,983.15
2023-03-31T02:34:07.581Z,983.06
2023-03-31T02:35:07.675Z,983.04
2023-03-31T02:36:07.696Z,983.05
2023-03-31T02:37:07.449Z,983.04
2023-03-31T02:38:07.439Z,983.00
2023-03-31T02:39:07.494Z,983.03
2023-03-31T02:40:07.399Z,982.97
2023-03-31T02:41:07.391Z,982.91
2023-03-31T02:42:07.747Z,982.99
2023-03-31T02:43:07.346Z,982.94
2023-03-31T02:44:07.385Z,982.79
2023-03-31T02:45:08.265Z,982.78
2023-03-31T02:46:07.600Z,982.60
2023-03-31T02:47:07.302Z,982.54
2023-03-31T02:48:07.998Z,982.43
2023-03-31T02:49:07.329Z,982.46
2023-03-31T02:50:07.315Z,982.49
2023-03-31T02:51:07.210Z,982.62
2023-03-31T02:52:07.216Z,982.66
2023-03-31T02:53:07.289Z,982.76
2023-03-31T02:54:07.320Z,982.74
2023-03-31T02:55:07.358Z,982.75
2023-03-31T02:56:07.439Z,982.65
2023-03-31T02:57:07.406Z,982.68
2023-03-31T02:58:07.173Z,982.71
2023-03-31T02:59:07.172Z,982.71
2023-03-31T03:00:07.245Z,982.67
2023-03-31T03:01:07.203Z,982.70
2023-03-31T03:02:07.221Z,982.63
2023-03-31T03:03:07.257Z,982.65
2023-03-31T03:04:07.256Z,982.56
2023-03-31T03:05:07.275Z,982.55
2023-03-31T03:06:07.445Z,982.57
2023-03-31T03:07:07.361Z,982.50
2023-03-31T03:08:07.114Z,982.59
2023-03-31T03:09:07.128Z,982.48
2023-03-31T03:10:07.051Z,982.45
2023-03-31T03:11:08.089Z,982.48
2023-03-31T03:12:07.318Z,982.43
2023-03-31T03:13:08.073Z,982.47
2023-03-31T03:14:07.136Z,982.41
2023-03-31T03:15:07.090Z,982.37
2023-03-31T03:16:07.206Z,982.43
2023-03-31T03:17:07.134Z,982.40
2023-03-31T03:18:07.007Z,982.37
2023-03-31T03:19:06.986Z,982.31
2023-03-31T03:20:07.033Z,982.30
2023-03-31T03:21:06.922Z,982.30
2023-03-31T03:22:08.797Z,982.24
2023-03-31T03:23:07.936Z,982.26
2023-03-31T03:24:06.954Z,982.28
2023-03-31T03:25:07.008Z,982.32
2023-03-31T03:26:07.153Z,982.29
2023-03-31T03:27:06.956Z,982.23
2023-03-31T03:28:07.011Z,982.29
2023-03-31T03:29:06.972Z,982.14
2023-03-31T03:30:06.884Z,982.15
2023-03-31T03:31:06.978Z,982.17
2023-03-31T03:32:06.884Z,982.18
2023-03-31T03:33:06.912Z,982.19
2023-03-31T03:34:06.864Z,982.19
2023-03-31T03:35:06.894Z,982.14
2023-03-31T03:36:06.968Z,982.07
2023-03-31T03:37:06.775Z,982.01
2023-03-31T03:38:07.002Z,981.98
2023-03-31T03:39:06.794Z,981.93
2023-03-31T03:40:06.810Z,981.94
2023-03-31T03:41:06.857Z,981.81
2023-03-31T03:42:06.836Z,981.81
2023-03-31T03:43:06.941Z,981.82
2023-03-31T03:44:06.763Z,981.75
2023-03-31T03:45:06.767Z,981.73
2023-03-31T03:46:06.984Z,981.73
2023-03-31T03:47:06.678Z,981.65
2023-03-31T03:48:06.819Z,981.62
2023-03-31T03:49:06.742Z,981.59
2023-03-31T03:50:39.306Z,981.51
2023-03-31T03:51:06.876Z,981.45
2023-03-31T03:52:06.887Z,981.52
2023-03-31T03:53:06.640Z,981.43
2023-03-31T03:54:06.588Z,981.44
2023-03-31T03:55:06.835Z,981.43
2023-03-31T03:56:06.699Z,981.40
2023-03-31T03:57:06.790Z,981.35
2023-03-31T03:58:06.565Z,981.33
2023-03-31T03:59:06.569Z,981.31
2023-03-31T04:00:06.588Z,981.25
2023-03-31T04:01:06.507Z,981.25
2023-03-31T04:02:06.562Z,981.21
2023-03-31T04:03:06.508Z,981.22
2023-03-31T04:04:06.473Z,981.24
2023-03-31T04:05:06.542Z,981.16
2023-03-31T04:06:06.777Z,981.15
2023-03-31T04:07:06.434Z,981.12
2023-03-31T04:08:06.452Z,981.06
2023-03-31T04:09:06.569Z,980.99
2023-03-31T04:10:06.441Z,980.95
2023-03-31T04:11:06.390Z,980.88
2023-03-31T04:12:06.402Z,980.86
2023-03-31T04:13:06.474Z,980.81
2023-03-31T04:14:06.395Z,980.77
2023-03-31T04:15:06.405Z,980.70
2023-03-31T04:16:06.508Z,980.67
2023-03-31T04:17:06.403Z,980.69
2023-03-31T04:18:06.409Z,980.66
2023-03-31T04:19:06.362Z,980.57
2023-03-31T04:20:06.352Z,980.53
2023-03-31T04:21:06.302Z,980.52
2023-03-31T04:22:06.317Z,980.49
2023-03-31T04:23:06.323Z,980.53
2023-03-31T04:24:06.315Z,980.53
2023-03-31T04:25:06.257Z,980.52
2023-03-31T04:26:06.414Z,980.54
2023-03-31T04:27:06.314Z,980.58
2023-03-31T04:28:06.277Z,980.59
2023-03-31T04:29:06.397Z,980.65
2023-03-31T04:30:06.213Z,980.64
2023-03-31T04:31:06.209Z,980.72
2023-03-31T04:32:06.267Z,980.74
2023-03-31T04:33:06.213Z,980.76
2023-03-31T04:34:06.288Z,980.72
2023-03-31T04:35:06.250Z,980.84
2023-03-31T04:36:06.367Z,980.89
2023-03-31T04:37:06.140Z,980.90
2023-03-31T04:38:06.140Z,980.88
2023-03-31T04:39:06.170Z,980.88
2023-03-31T04:40:06.177Z,980.84
2023-03-31T04:41:06.169Z,980.75
2023-03-31T04:42:06.101Z,980.72
2023-03-31T04:43:06.130Z,980.67
2023-03-31T04:44:06.110Z,980.68
2023-03-31T04:45:06.151Z,980.59
2023-03-31T04:46:06.474Z,980.61
2023-03-31T04:47:06.077Z,980.58
2023-03-31T04:48:06.149Z,980.51
2023-03-31T04:49:06.139Z,980.50
2023-03-31T04:50:06.055Z,980.44
2023-03-31T04:51:06.060Z,980.40
2023-03-31T04:52:06.061Z,980.23
2023-03-31T04:53:06.229Z,980.28
2023-03-31T04:54:05.967Z,980.29
2023-03-31T04:55:06.104Z,980.31
2023-03-31T04:56:06.080Z,980.23
2023-03-31T04:57:06.005Z,980.16
2023-03-31T04:58:05.939Z,980.15
2023-03-31T04:59:05.946Z,980.17
2023-03-31T05:00:06.387Z,980.14
2023-03-31T05:01:05.954Z,980.07
2023-03-31T05:02:06.045Z,980.17
2023-03-31T05:03:05.991Z,980.11
2023-03-31T05:04:05.932Z,979.99
2023-03-31T05:05:06.018Z,980.02
2023-03-31T05:06:06.041Z,979.93
2023-03-31T05:07:05.865Z,979.94
2023-03-31T05:08:05.849Z,979.96
2023-03-31T05:09:05.878Z,979.91
2023-03-31T05:10:05.884Z,979.93
2023-03-31T05:11:05.842Z,979.89
2023-03-31T05:12:05.829Z,979.89
2023-03-31T05:13:05.826Z,979.86
2023-03-31T05:14:05.838Z,979.88
2023-03-31T05:15:05.897Z,979.85
2023-03-31T05:16:06.010Z,979.81
2023-03-31T05:17:05.845Z,979.92
2023-03-31T05:18:05.815Z,979.97
2023-03-31T05:19:05.757Z,979.98
2023-03-31T05:20:05.956Z,979.97
2023-03-31T05:21:05.790Z,979.94
2023-03-31T05:22:05.708Z,979.94
2023-03-31T05:23:06.841Z,979.95
2023-03-31T05:24:05.778Z,979.92
2023-03-31T05:25:05.723Z,979.94
2023-03-31T05:26:05.903Z,979.97
2023-03-31T05:27:05.718Z,979.88
2023-03-31T05:28:05.720Z,979.93
2023-03-31T05:29:05.599Z,979.98
2023-03-31T05:30:05.736Z,979.90
2023-03-31T05:31:05.745Z,979.89
2023-03-31T05:32:05.878Z,979.87
2023-03-31T05:33:05.741Z,979.88
2023-03-31T05:34:05.633Z,979.84
2023-03-31T05:35:05.638Z,979.81
2023-03-31T05:36:05.760Z,979.78
2023-03-31T05:37:05.583Z,979.82
2023-03-31T05:38:05.549Z,979.79
2023-03-31T05:39:05.642Z,979.81
2023-03-31T05:40:05.564Z,979.64
2023-03-31T05:41:06.586Z,979.65
2023-03-31T05:42:05.601Z,979.64
2023-03-31T05:43:05.539Z,979.69
2023-03-31T05:44:05.626Z,979.73
2023-03-31T05:45:07.791Z,979.77
2023-03-31T05:46:06.041Z,979.65
2023-03-31T05:47:05.460Z,979.65
2023-03-31T05:48:05.490Z,979.67
2023-03-31T05:49:05.517Z,979.60
2023-03-31T05:50:05.465Z,979.68
2023-03-31T05:51:05.426Z,979.62
2023-03-31T05:52:05.511Z,979.59
2023-03-31T05:53:05.418Z,979.66
2023-03-31T05:54:05.535Z,979.58
2023-03-31T05:55:05.398Z,979.54
2023-03-31T05:56:06.086Z,979.54
2023-03-31T05:57:05.411Z,979.52
2023-03-31T05:58:05.405Z,979.48
2023-03-31T05:59:05.561Z,979.52
2023-03-31T06:00:05.336Z,979.46
2023-03-31T06:01:05.570Z,979.46
2023-03-31T06:02:05.391Z,979.40
2023-03-31T06:03:05.525Z,979.54
2023-03-31T06:04:05.310Z,979.45
2023-03-31T06:05:05.410Z,979.46
2023-03-31T06:06:05.299Z,979.38
2023-03-31T06:07:05.317Z,979.35
2023-03-31T06:08:05.289Z,979.35
2023-03-31T06:09:05.337Z,979.33
2023-03-31T06:10:05.322Z,979.42
2023-03-31T06:11:05.398Z,979.37
2023-03-31T06:12:05.204Z,979.37
2023-03-31T06:13:05.214Z,979.31
2023-03-31T06:14:05.318Z,979.36
2023-03-31T06:15:05.301Z,979.36
2023-03-31T06:16:05.385Z,979.22
2023-03-31T06:17:05.144Z,979.23
2023-03-31T06:18:05.163Z,979.24
2023-03-31T06:32:32.035Z,979.12
2023-03-31T06:33:32.025Z,979.15
2023-03-31T06:34:31.982Z,979.15
2023-03-31T06:35:31.997Z,979.07
2023-03-31T06:36:33.247Z,979.10
2023-03-31T06:37:33.221Z,979.10
2023-03-31T06:38:33.101Z,979.07
2023-03-31T06:39:33.097Z,979.15
2023-03-31T06:40:33.105Z,979.19
2023-03-31T06:41:33.300Z,979.08
2023-03-31T06:42:33.070Z,979.03
2023-03-31T06:43:33.140Z,979.11
2023-03-31T06:44:33.067Z,979.12
2023-03-31T06:45:33.044Z,979.10
2023-03-31T06:46:33.141Z,979.11
2023-03-31T06:47:33.044Z,979.08
2023-03-31T06:48:33.029Z,979.06
2023-03-31T06:49:32.984Z,979.13
2023-03-31T06:50:32.992Z,979.08
2023-03-31T06:51:33.061Z,979.11
2023-03-31T06:52:32.957Z,979.09
2023-03-31T06:53:32.935Z,979.06
2023-03-31T06:54:33.015Z,979.03
2023-03-31T06:55:32.943Z,979.04
2023-03-31T06:56:32.923Z,978.94
2023-03-31T06:57:33.014Z,978.91
2023-03-31T06:58:32.906Z,978.99
2023-03-31T06:59:32.935Z,978.94
2023-03-31T07:00:32.908Z,978.87
2023-03-31T07:01:32.925Z,978.87
2023-03-31T07:02:32.973Z,978.87
2023-03-31T07:03:32.894Z,978.91
2023-03-31T07:04:33.022Z,978.88
2023-03-31T07:05:32.882Z,978.79
2023-03-31T07:06:32.873Z,978.84
2023-03-31T07:07:32.835Z,978.91
2023-03-31T07:08:32.828Z,978.81
2023-03-31T07:09:32.858Z,978.86
2023-03-31T07:10:32.795Z,978.85
2023-03-31T07:11:32.759Z,978.81
2023-03-31T07:12:32.784Z,978.82
2023-03-31T07:13:32.800Z,978.77
2023-03-31T07:14:32.747Z,978.71
2023-03-31T07:15:32.770Z,978.77
2023-03-31T07:16:32.796Z,978.80
2023-03-31T07:17:32.793Z,978.77
2023-03-31T07:18:34.880Z,978.82
2023-03-31T07:19:33.710Z,978.80
2023-03-31T07:20:32.699Z,978.74
2023-03-31T07:21:32.683Z,978.68
2023-03-31T07:22:32.722Z,978.72
2023-03-31T07:23:32.650Z,978.73
2023-03-31T07:24:32.740Z,978.71
2023-03-31T07:25:32.676Z,978.67
2023-03-31T07:26:32.688Z,978.66
2023-03-31T07:27:32.637Z,978.65
2023-03-31T07:28:32.625Z,978.57
2023-03-31T07:29:32.808Z,978.63
2023-03-31T07:30:32.611Z,978.58
2023-03-31T07:31:32.598Z,978.64
2023-03-31T07:32:32.705Z,978.54
2023-03-31T07:33:32.558Z,978.59
2023-03-31T07:34:33.112Z,978.56
2023-03-31T07:35:32.571Z,978.57
2023-03-31T07:36:32.764Z,978.56
2023-03-31T07:37:32.490Z,978.44
2023-03-31T07:38:32.533Z,978.50
2023-03-31T07:39:32.485Z,978.40
2023-03-31T07:40:32.556Z,978.35
2023-03-31T07:41:32.533Z,978.37
2023-03-31T07:42:32.475Z,978.31
2023-03-31T07:43:33.234Z,978.27
2023-03-31T07:44:32.467Z,978.23
2023-03-31T07:45:32.490Z,978.29
2023-03-31T07:46:32.477Z,978.25
2023-03-31T07:47:32.431Z,978.24
2023-03-31T07:48:32.408Z,978.22
2023-03-31T07:49:32.416Z,978.21
2023-03-31T07:50:32.398Z,978.19
2023-03-31T07:51:32.382Z,978.27
2023-03-31T07:52:32.386Z,978.21
2023-03-31T07:53:32.365Z,978.24
2023-03-31T07:54:32.465Z,978.24
2023-03-31T07:55:32.333Z,978.25
2023-03-31T07:56:32.334Z,978.18
2023-03-31T07:57:32.412Z,978.20
2023-03-31T07:58:32.312Z,978.22
2023-03-31T07:59:32.313Z,978.19
2023-03-31T08:00:32.301Z,978.22
2023-03-31T08:01:32.286Z,978.27
2023-03-31T08:02:32.406Z,978.20
2023-03-31T08:03:32.366Z,978.12
2023-03-31T08:04:32.309Z,978.16
2023-03-31T08:05:33.240Z,978.08
2023-03-31T08:06:32.270Z,978.11
2023-03-31T08:07:32.207Z,978.15
2023-03-31T08:08:32.197Z,978.14
2023-03-31T08:09:32.241Z,978.16
2023-03-31T08:10:32.231Z,978.09
2023-03-31T08:11:32.178Z,978.08
2023-03-31T08:12:32.172Z,978.03
2023-03-31T08:13:32.154Z,978.06
2023-03-31T08:14:40.522Z,978.01
2023-03-31T08:15:34.189Z,978.04
2023-03-31T08:16:32.212Z,978.04
2023-03-31T08:17:32.118Z,978.06
2023-03-31T08:18:32.101Z,978.01
2023-03-31T08:19:32.112Z,977.99
2023-03-31T08:20:32.116Z,977.90
2023-03-31T08:21:32.067Z,977.84
2023-03-31T08:22:32.087Z,977.85
2023-03-31T08:23:32.048Z,977.77
2023-03-31T08:24:32.021Z,977.70
2023-03-31T08:25:32.051Z,977.67
2023-03-31T08:26:32.030Z,977.67
2023-03-31T08:27:32.004Z,977.63
2023-03-31T08:28:31.989Z,977.55
2023-03-31T08:29:32.712Z,977.53
2023-03-31T08:30:32.064Z,977.50
2023-03-31T08:31:32.020Z,977.46
2023-03-31T08:32:32.009Z,977.49
2023-03-31T08:33:31.952Z,977.46
2023-03-31T08:34:31.931Z,977.49
2023-03-31T08:35:32.021Z,977.50
2023-03-31T08:36:36.917Z,977.44
2023-03-31T08:37:31.931Z,977.41
2023-03-31T08:38:31.884Z,977.42
2023-03-31T08:39:31.916Z,977.38
2023-03-31T08:40:31.948Z,977.40
2023-03-31T08:41:31.915Z,977.48
2023-03-31T08:42:31.853Z,977.41
2023-03-31T08:43:31.836Z,977.45
2023-03-31T08:44:31.796Z,977.52
2023-03-31T08:45:31.888Z,977.49
2023-03-31T08:46:31.909Z,977.45
2023-03-31T08:47:31.861Z,977.43
2023-03-31T08:48:31.798Z,977.39
2023-03-31T08:49:31.775Z,977.41
2023-03-31T08:50:31.796Z,977.38
2023-03-31T08:51:31.796Z,977.40
2023-03-31T08:52:31.800Z,977.27
2023-03-31T08:53:31.770Z,977.36
2023-03-31T08:54:31.754Z,977.33
2023-03-31T08:55:31.706Z,977.32
2023-03-31T08:56:31.738Z,977.33
2023-03-31T08:57:31.826Z,977.21
2023-03-31T08:58:31.712Z,977.30
2023-03-31T08:59:31.828Z,977.27
2023-03-31T09:00:31.759Z,977.31
2023-03-31T09:01:34.042Z,977.25
2023-03-31T09:02:32.828Z,977.24
2023-03-31T09:03:31.755Z,977.17
2023-03-31T09:04:31.718Z,977.20
2023-03-31T09:05:31.685Z,977.15
2023-03-31T09:06:32.318Z,977.21
2023-03-31T09:07:31.822Z,977.16
2023-03-31T09:08:31.692Z,977.19
2023-03-31T09:09:32.628Z,977.17
2023-03-31T09:10:31.636Z,977.08
2023-03-31T09:11:31.798Z,977.03
2023-03-31T09:12:31.653Z,977.03
2023-03-31T09:13:32.372Z,977.04
2023-03-31T09:14:31.688Z,977.05
2023-03-31T09:15:31.694Z,976.96
2023-03-31T09:16:31.826Z,977.00
2023-03-31T09:17:31.682Z,976.99
2023-03-31T09:18:31.644Z,977.01
2023-03-31T09:19:31.724Z,976.98
2023-03-31T09:20:31.734Z,976.91
2023-03-31T09:21:31.512Z,976.89
2023-03-31T09:22:31.822Z,976.87
2023-03-31T09:23:31.503Z,976.86
2023-03-31T09:24:32.448Z,976.86
2023-03-31T09:25:31.551Z,976.87
2023-03-31T09:26:31.720Z,976.89
2023-03-31T09:27:31.446Z,976.74
2023-03-31T09:28:31.484Z,976.88
2023-03-31T09:29:31.539Z,976.83
2023-03-31T09:30:31.396Z,976.89
2023-03-31T09:31:31.433Z,976.81
2023-03-31T09:32:31.396Z,976.73
2023-03-31T09:33:31.354Z,976.76
2023-03-31T09:34:31.394Z,976.71
2023-03-31T09:35:31.332Z,976.72
2023-03-31T09:36:31.482Z,976.77
2023-03-31T09:37:31.399Z,976.70
2023-03-31T09:38:31.300Z,976.73
2023-03-31T09:39:31.343Z,976.68
2023-03-31T09:40:31.287Z,976.62
2023-03-31T09:41:33.039Z,976.54
2023-03-31T09:42:33.453Z,976.61
2023-03-31T09:43:31.290Z,976.55
2023-03-31T09:44:31.284Z,976.65
2023-03-31T09:45:31.219Z,976.52
2023-03-31T09:46:31.441Z,976.56
2023-03-31T09:47:31.214Z,976.52
2023-03-31T09:48:31.292Z,976.52
2023-03-31T09:49:31.224Z,976.47
2023-03-31T09:50:31.187Z,976.48
2023-03-31T09:51:31.221Z,976.47
2023-03-31T09:52:31.204Z,976.45
2023-03-31T09:53:31.116Z,976.42
2023-03-31T09:54:31.169Z,976.39
2023-03-31T09:55:39.727Z,976.41
2023-03-31T09:56:32.171Z,976.33
2023-03-31T09:57:33.300Z,976.27
2023-03-31T09:58:32.128Z,976.34
2023-03-31T09:59:31.258Z,976.28
2023-03-31T10:01:06.547Z,976.34
2023-03-31T10:01:33.964Z,976.32
2023-03-31T10:02:33.507Z,976.19
2023-03-31T10:08:33.810Z,976.12
2023-03-31T10:16:30.434Z,976.15
2023-03-31T10:22:08.088Z,976.06
2023-03-31T10:23:46.326Z,976.06
2023-03-31T10:24:10.144Z,976.09
2023-03-31T10:25:12.987Z,976.09
2023-03-31T10:33:11.571Z,975.96
2023-03-31T11:35:46.243Z,975.17
2023-03-31T11:46:51.429Z,974.96
2023-03-31T11:52:41.986Z,974.93
2023-03-31T11:53:49.394Z,974.98
2023-03-31T12:06:34.436Z,974.92
2023-03-31T12:09:41.781Z,974.81
2023-03-31T12:10:41.996Z,974.85
2023-03-31T12:11:41.991Z,974.91
2023-03-31T12:12:41.852Z,974.85
2023-03-31T12:19:00.754Z,974.98
2023-03-31T12:20:34.368Z,974.91
2023-03-31T12:21:01.965Z,974.93
2023-03-31T12:27:00.097Z,974.94
